createdAt,value
2023-02-24T00:02:01.408Z,-7.65
2023-02-24T00:04:39.849Z,-7.69
2023-02-24T00:07:12.780Z,-7.60
2023-02-24T00:09:40.126Z,-7.56
2023-02-24T00:12:10.830Z,-7.51
2023-02-24T00:14:40.143Z,-7.49
2023-02-24T00:17:10.482Z,-7.54
2023-02-24T00:19:38.235Z,-7.55
2023-02-24T00:22:07.926Z,-7.55
2023-02-24T00:24:35.839Z,-7.68
2023-02-24T00:27:08.350Z,-7.53
2023-02-24T00:29:37.808Z,-7.55
2023-02-24T00:32:07.684Z,-7.53
2023-02-24T00:34:37.737Z,-7.56
2023-02-24T00:37:09.107Z,-7.64
2023-02-24T00:39:37.350Z,-7.64
2023-02-24T00:42:06.242Z,-7.47
2023-02-24T00:44:41.179Z,-7.43
2023-02-24T00:47:10.580Z,-7.44
2023-02-24T00:49:42.922Z,-7.43
2023-02-24T00:52:20.951Z,-7.45
2023-02-24T00:54:49.912Z,-7.43
2023-02-24T00:57:18.579Z,-7.43
2023-02-24T00:59:51.599Z,-7.41
2023-02-24T01:02:18.631Z,-7.40
2023-02-24T01:04:45.658Z,-7.41
2023-02-24T01:07:13.023Z,-7.38
2023-02-24T01:09:41.838Z,-7.40
2023-02-24T01:12:31.424Z,-7.32
2023-02-24T01:14:58.238Z,-7.29
2023-02-24T01:17:25.627Z,-7.40
2023-02-24T01:19:52.786Z,-7.36
2023-02-24T01:22:21.104Z,-7.34
2023-02-24T01:24:48.944Z,-7.32
2023-02-24T01:27:19.107Z,-7.25
2023-02-24T01:29:49.687Z,-7.21
2023-02-24T01:32:20.203Z,-7.24
2023-02-24T01:34:47.820Z,-7.41
2023-02-24T01:37:17.359Z,-7.25
2023-02-24T01:39:45.251Z,-7.21
2023-02-24T01:42:16.961Z,-7.17
2023-02-24T01:44:46.337Z,-7.11
2023-02-24T01:47:14.581Z,-7.08
2023-02-24T01:49:45.292Z,-7.16
2023-02-24T01:52:30.509Z,-7.18
2023-02-24T01:55:04.060Z,-7.16
2023-02-24T01:57:34.648Z,-7.16
2023-02-24T02:00:12.313Z,-7.08
2023-02-24T02:02:42.539Z,-7.06
2023-02-24T02:05:10.487Z,-7.04
2023-02-24T02:07:40.484Z,-7.09
2023-02-24T02:10:10.503Z,-7.13
2023-02-24T02:12:44.583Z,-7.13
2023-02-24T02:15:20.443Z,-7.11
2023-02-24T02:18:10.265Z,-7.13
2023-02-24T02:20:55.969Z,-7.10
2023-02-24T02:23:34.672Z,-7.11
2023-02-24T02:26:32.702Z,-7.11
2023-02-24T02:29:19.425Z,-7.17
2023-02-24T02:32:14.904Z,-7.19
2023-02-24T02:35:03.532Z,-7.21
2023-02-24T02:37:47.597Z,-7.25
2023-02-24T02:40:24.278Z,-7.30
2023-02-24T02:43:29.707Z,-7.27
2023-02-24T02:46:35.067Z,-7.23
2023-02-24T02:49:17.182Z,-7.26
2023-02-24T02:51:58.977Z,-7.23
2023-02-24T02:54:32.659Z,-7.21
2023-02-24T02:57:09.653Z,-7.20
2023-02-24T02:59:40.687Z,-7.19
2023-02-24T03:02:15.182Z,-7.19
2023-02-24T03:04:47.626Z,-7.17
2023-02-24T03:07:17.959Z,-7.16
2023-02-24T03:09:50.557Z,-7.18
2023-02-24T03:12:21.605Z,-7.20
2023-02-24T03:14:59.203Z,-7.19
2023-02-24T03:17:30.126Z,-7.20
2023-02-24T03:20:22.772Z,-7.22
2023-02-24T03:22:59.838Z,-7.29
2023-02-24T03:25:38.362Z,-7.29
2023-02-24T03:28:16.600Z,-7.30
2023-02-24T03:30:50.524Z,-7.26
2023-02-24T03:33:24.938Z,-7.32
2023-02-24T03:35:51.967Z,-7.29
2023-02-24T03:38:23.345Z,-7.30
2023-02-24T03:40:51.463Z,-7.30
2023-02-24T03:43:26.362Z,-7.30
2023-02-24T03:45:54.732Z,-7.29
2023-02-24T03:48:22.896Z,-7.35
2023-02-24T03:50:49.806Z,-7.28
2023-02-24T03:53:30.776Z,-7.29
2023-02-24T03:56:31.483Z,-7.31
2023-02-24T03:59:04.215Z,-7.31
2023-02-24T04:01:58.110Z,-7.26
2023-02-24T04:04:45.623Z,-7.28
2023-02-24T04:07:14.971Z,-7.29
2023-02-24T04:09:50.325Z,-7.26
2023-02-24T04:12:26.939Z,-7.30
2023-02-24T04:15:32.302Z,-7.26
2023-02-24T04:18:04.946Z,-7.18
2023-02-24T04:20:34.719Z,-7.18
2023-02-24T04:23:11.568Z,-7.15
2023-02-24T04:25:42.224Z,-7.27
2023-02-24T04:28:10.586Z,-7.09
2023-02-24T04:30:42.268Z,-7.03
2023-02-24T04:33:10.184Z,-7.02
2023-02-24T04:35:37.970Z,-7.00
2023-02-24T04:38:05.449Z,-7.00
2023-02-24T04:40:32.283Z,-6.98
2023-02-24T04:42:59.144Z,-6.96
2023-02-24T04:45:29.047Z,-6.97
2023-02-24T04:48:01.242Z,-7.02
2023-02-24T04:50:36.710Z,-6.97
2023-02-24T04:53:08.207Z,-6.98
2023-02-24T04:55:56.331Z,-6.94
2023-02-24T04:58:28.061Z,-7.00
2023-02-24T05:00:56.123Z,-6.94
2023-02-24T05:03:28.203Z,-6.90
2023-02-24T05:05:59.657Z,-6.86
2023-02-24T05:08:28.411Z,-6.79
2023-02-24T05:10:57.399Z,-6.73
2023-02-24T05:13:31.894Z,-6.73
2023-02-24T05:16:09.269Z,-6.72
2023-02-24T05:18:37.362Z,-6.73
2023-02-24T05:21:31.895Z,-6.67
2023-02-24T05:23:59.560Z,-6.66
2023-02-24T05:26:27.149Z,-6.67
2023-02-24T05:28:56.675Z,-6.66
2023-02-24T05:31:26.890Z,-6.66
2023-02-24T05:34:02.865Z,-6.63
2023-02-24T05:36:33.490Z,-6.60
2023-02-24T05:39:07.858Z,-6.57
2023-02-24T05:41:37.906Z,-6.63
2023-02-24T05:44:10.868Z,-6.57
2023-02-24T05:46:40.983Z,-6.55
2023-02-24T05:49:14.486Z,-6.54
2023-02-24T05:51:43.615Z,-6.54
2023-02-24T05:54:13.231Z,-6.51
2023-02-24T05:56:43.932Z,-6.49
2023-02-24T05:59:12.647Z,-6.46
2023-02-24T06:01:41.953Z,-6.40
2023-02-24T06:04:09.915Z,-6.35
2023-02-24T06:06:39.937Z,-6.32
2023-02-24T06:09:10.895Z,-6.35
2023-02-24T06:11:41.511Z,-6.43
2023-02-24T06:14:10.260Z,-6.24
2023-02-24T06:16:40.088Z,-6.20
2023-02-24T06:19:09.211Z,-6.14
2023-02-24T06:21:36.391Z,-6.10
2023-02-24T06:24:03.242Z,-6.08
2023-02-24T06:26:30.105Z,-6.04
2023-02-24T06:28:58.787Z,-6.02
2023-02-24T06:31:27.602Z,-5.97
2023-02-24T06:33:54.404Z,-5.92
2023-02-24T06:36:21.389Z,-6.05
2023-02-24T06:38:49.667Z,-5.91
2023-02-24T06:41:16.532Z,-5.88
2023-02-24T06:43:45.618Z,-5.84
2023-02-24T06:46:13.223Z,-5.87
2023-02-24T06:48:40.179Z,-5.99
2023-02-24T06:51:10.672Z,-6.00
2023-02-24T06:53:43.307Z,-6.14
2023-02-24T06:56:15.159Z,-6.15
2023-02-24T06:58:43.907Z,-6.14
2023-02-24T07:01:16.289Z,-6.05
2023-02-24T07:04:02.810Z,-6.01
2023-02-24T07:06:34.413Z,-6.06
2023-02-24T07:09:07.213Z,-6.17
2023-02-24T07:11:35.661Z,-5.94
2023-02-24T07:14:05.908Z,-5.83
2023-02-24T07:16:34.696Z,-5.82
2023-02-24T07:19:11.341Z,-5.76
2023-02-24T07:21:46.388Z,-5.74
2023-02-24T07:24:24.861Z,-5.68
2023-02-24T07:27:27.741Z,-5.61
2023-02-24T07:29:54.574Z,-5.69
2023-02-24T07:32:22.865Z,-5.67
2023-02-24T07:34:49.945Z,-5.62
2023-02-24T07:37:17.011Z,-5.62
2023-02-24T07:39:43.822Z,-5.64
2023-02-24T07:42:14.591Z,-5.51
2023-02-24T07:44:44.654Z,-5.45
2023-02-24T07:47:11.413Z,-5.39
2023-02-24T07:49:41.026Z,-5.36
2023-02-24T07:52:08.476Z,-5.32
2023-02-24T07:54:35.786Z,-5.39
2023-02-24T07:57:02.664Z,-5.50
2023-02-24T07:59:35.350Z,-5.56
2023-02-24T08:02:05.074Z,-5.58
2023-02-24T08:04:33.196Z,-5.71
2023-02-24T08:07:03.600Z,-5.50
2023-02-24T08:09:45.113Z,-5.39
2023-02-24T08:12:22.885Z,-5.24
2023-02-24T08:14:52.380Z,-5.17
2023-02-24T08:17:23.968Z,-5.17
2023-02-24T08:20:12.792Z,-5.20
2023-02-24T08:22:44.038Z,-5.21
2023-02-24T08:25:18.702Z,-5.23
2023-02-24T08:28:12.495Z,-5.20
2023-02-24T08:30:46.128Z,-5.19
2023-02-24T08:33:22.168Z,-5.24
2023-02-24T08:36:01.245Z,-5.32
2023-02-24T08:38:40.416Z,-5.18
2023-02-24T08:41:13.322Z,-5.14
2023-02-24T08:43:41.228Z,-5.20
2023-02-24T08:46:13.960Z,-5.11
2023-02-24T08:48:47.115Z,-5.20
2023-02-24T08:51:15.952Z,-5.09
2023-02-24T08:53:44.802Z,-5.03
2023-02-24T08:56:14.165Z,-4.93
2023-02-24T08:58:49.808Z,-5.08
2023-02-24T09:01:24.623Z,-5.00
2023-02-24T09:03:56.377Z,-4.97
2023-02-24T09:06:45.345Z,-4.91
2023-02-24T09:09:18.938Z,-4.80
2023-02-24T09:11:49.470Z,-4.79
2023-02-24T09:14:27.207Z,-4.77
2023-02-24T09:17:03.276Z,-4.88
2023-02-24T09:19:51.599Z,-4.70
2023-02-24T09:22:30.096Z,-4.76
2023-02-24T09:25:20.790Z,-4.54
2023-02-24T09:27:57.106Z,-4.62
2023-02-24T09:30:38.994Z,-4.64
2023-02-24T09:33:18.293Z,-4.64
2023-02-24T09:36:03.374Z,-4.61
2023-02-24T09:38:56.953Z,-4.58
2023-02-24T09:41:54.875Z,-4.61
2023-02-24T09:44:33.474Z,-4.59
2023-02-24T09:47:20.127Z,-4.63
2023-02-24T09:49:56.526Z,-4.45
2023-02-24T09:52:42.195Z,-4.34
2023-02-24T09:56:06.568Z,-4.30
2023-02-24T09:58:48.768Z,-4.24
2023-02-24T10:01:47.754Z,-4.20
2023-02-24T10:04:49.246Z,-4.16
2023-02-24T10:07:21.352Z,-4.17
2023-02-24T10:10:02.074Z,-4.17
2023-02-24T10:12:40.221Z,-4.10
2023-02-24T10:15:32.387Z,-4.01
2023-02-24T10:18:27.299Z,-3.94
2023-02-24T10:21:48.322Z,-3.91
2023-02-24T10:24:29.483Z,-3.83
2023-02-24T10:27:08.479Z,-3.82
2023-02-24T10:30:05.030Z,-3.90
2023-02-24T10:32:52.876Z,-3.83
2023-02-24T10:35:26.121Z,-3.81
2023-02-24T10:37:54.321Z,-3.89
2023-02-24T10:40:43.958Z,-3.93
2023-02-24T10:43:17.896Z,-3.98
2023-02-24T10:45:47.060Z,-3.94
2023-02-24T10:48:40.357Z,-3.94
2023-02-24T10:51:22.179Z,-3.88
2023-02-24T10:54:10.129Z,-3.79
2023-02-24T10:56:44.680Z,-3.73
2023-02-24T10:59:24.522Z,-3.70
2023-02-24T11:01:59.124Z,-3.71
2023-02-24T11:04:59.750Z,-3.73
2023-02-24T11:07:47.488Z,-3.71
2023-02-24T11:10:26.097Z,-3.65
2023-02-24T11:13:14.015Z,-3.60
2023-02-24T11:16:12.376Z,-3.54
2023-02-24T11:18:45.811Z,-3.61
2023-02-24T11:21:14.529Z,-3.47
2023-02-24T11:23:52.092Z,-3.47
2023-02-24T11:26:21.333Z,-3.37
2023-02-24T11:29:17.575Z,-3.31
2023-02-24T11:32:22.275Z,-3.26
2023-02-24T11:35:12.637Z,-3.22
2023-02-24T11:38:27.906Z,-3.31
2023-02-24T11:41:30.624Z,-3.27
2023-02-24T11:44:11.261Z,-3.27
2023-02-24T11:46:46.010Z,-3.33
2023-02-24T11:49:30.769Z,-3.36
2023-02-24T11:52:01.355Z,-3.36
2023-02-24T11:54:37.886Z,-3.36
2023-02-24T11:57:11.030Z,-3.33
2023-02-24T11:59:45.356Z,-3.26
2023-02-24T12:02:38.786Z,-3.28
2023-02-24T12:05:09.025Z,-3.34
2023-02-24T12:07:42.584Z,-3.35
2023-02-24T12:10:18.437Z,-3.38
2023-02-24T12:13:08.769Z,-3.36
2023-02-24T12:15:43.708Z,-3.34
2023-02-24T12:18:14.031Z,-3.38
2023-02-24T12:20:47.380Z,-3.44
2023-02-24T12:23:23.324Z,-3.44
2023-02-24T12:26:20.468Z,-3.44
2023-02-24T12:29:12.274Z,-3.41
2023-02-24T12:32:05.375Z,-3.36
2023-02-24T12:34:56.857Z,-3.32
2023-02-24T12:37:43.356Z,-3.30
2023-02-24T12:40:22.598Z,-3.35
2023-02-24T12:43:14.209Z,-3.42
2023-02-24T12:46:21.261Z,-3.44
2023-02-24T12:49:09.375Z,-3.43
2023-02-24T12:51:48.179Z,-3.39
2023-02-24T12:54:29.328Z,-3.35
2023-02-24T12:57:14.573Z,-3.36
2023-02-24T12:59:42.397Z,-3.35
2023-02-24T13:02:47.872Z,-3.29
2023-02-24T13:05:46.460Z,-3.26
2023-02-24T13:08:40.618Z,-3.32
2023-02-24T13:11:34.017Z,-3.24
2023-02-24T13:14:12.462Z,-3.32
2023-02-24T13:16:39.265Z,-3.26
2023-02-24T13:19:06.081Z,-3.27
2023-02-24T13:21:34.257Z,-3.45
2023-02-24T13:24:02.703Z,-3.37
2023-02-24T13:26:32.398Z,-3.40
2023-02-24T13:29:02.957Z,-3.41
2023-02-24T13:31:50.481Z,-3.45
2023-02-24T13:34:26.320Z,-3.43
2023-02-24T13:36:53.278Z,-3.40
2023-02-24T13:39:44.487Z,-3.36
2023-02-24T13:42:20.345Z,-3.37
2023-02-24T13:45:16.314Z,-3.33
2023-02-24T13:48:05.773Z,-3.40
2023-02-24T13:50:41.518Z,-3.25
2023-02-24T13:53:29.776Z,-3.25
2023-02-24T13:55:59.276Z,-3.23
2023-02-24T13:58:40.148Z,-3.21
2023-02-24T14:01:15.518Z,-3.21
2023-02-24T14:03:46.711Z,-3.21
2023-02-24T14:06:26.782Z,-3.19
2023-02-24T14:08:57.815Z,-3.22
2023-02-24T14:11:28.998Z,-3.33
2023-02-24T14:13:57.675Z,-3.16
2023-02-24T14:16:28.060Z,-3.19
2023-02-24T14:18:57.908Z,-3.08
2023-02-24T14:21:27.779Z,-3.08
2023-02-24T14:24:00.488Z,-3.08
2023-02-24T14:26:28.796Z,-3.12
2023-02-24T14:29:01.122Z,-3.13
2023-02-24T14:31:28.956Z,-3.08
2023-02-24T14:34:01.792Z,-3.04
2023-02-24T14:36:42.275Z,-3.03
2023-02-24T14:39:16.159Z,-3.02
2023-02-24T14:41:44.233Z,-3.00
2023-02-24T14:44:28.020Z,-3.03
2023-02-24T14:47:02.563Z,-3.20
2023-02-24T14:49:34.682Z,-3.04
2023-02-24T14:52:16.564Z,-3.02
2023-02-24T14:54:54.320Z,-3.04
2023-02-24T14:57:31.830Z,-3.00
2023-02-24T15:00:17.441Z,-3.00
2023-02-24T15:02:51.637Z,-3.02
2023-02-24T15:05:19.044Z,-3.04
2023-02-24T15:07:46.478Z,-3.19
2023-02-24T15:10:23.379Z,-3.08
2023-02-24T15:13:16.608Z,-3.08
2023-02-24T15:15:43.900Z,-3.09
2023-02-24T15:18:17.989Z,-3.18
2023-02-24T15:20:44.960Z,-3.10
2023-02-24T15:23:32.548Z,-3.10
2023-02-24T15:25:59.873Z,-3.09
2023-02-24T15:28:33.272Z,-3.09
2023-02-24T15:31:01.850Z,-3.10
2023-02-24T15:33:52.864Z,-3.16
2023-02-24T15:36:23.318Z,-3.19
2023-02-24T15:38:58.221Z,-3.20
2023-02-24T15:41:25.566Z,-3.22
2023-02-24T15:43:56.223Z,-3.23
2023-02-24T15:46:30.953Z,-3.22
2023-02-24T15:49:03.018Z,-3.25
2023-02-24T15:51:45.486Z,-3.25
2023-02-24T15:54:34.697Z,-3.28
2023-02-24T15:57:03.131Z,-3.34
2023-02-24T15:59:30.107Z,-3.19
2023-02-24T16:01:57.619Z,-3.22
2023-02-24T16:04:26.939Z,-3.23
2023-02-24T16:06:56.588Z,-3.24
2023-02-24T16:09:39.150Z,-3.23
2023-02-24T16:12:10.984Z,-3.21
2023-02-24T16:14:39.335Z,-3.21
2023-02-24T16:17:15.948Z,-3.16
2023-02-24T16:19:44.324Z,-3.12
2023-02-24T16:22:11.248Z,-3.14
2023-02-24T16:24:38.284Z,-3.15
2023-02-24T16:27:06.269Z,-3.14
2023-02-24T16:29:33.059Z,-3.15
2023-02-24T16:32:00.007Z,-3.16
2023-02-24T16:34:27.058Z,-3.17
2023-02-24T16:36:54.071Z,-3.18
2023-02-24T16:39:20.916Z,-3.19
2023-02-24T16:41:47.732Z,-3.18
2023-02-24T16:44:14.600Z,-3.16
2023-02-24T16:46:44.694Z,-3.14
2023-02-24T16:49:18.119Z,-3.15
2023-02-24T16:51:44.967Z,-3.19
2023-02-24T16:54:12.095Z,-3.20
2023-02-24T16:56:38.922Z,-3.18
2023-02-24T16:59:05.721Z,-3.16
2023-02-24T17:01:32.794Z,-3.17
2023-02-24T17:03:59.697Z,-3.09
2023-02-24T17:06:26.939Z,-3.07
2023-02-24T17:08:54.254Z,-3.07
2023-02-24T17:11:29.138Z,-3.06
2023-02-24T17:13:56.065Z,-3.17
2023-02-24T17:16:23.459Z,-3.08
2023-02-24T17:18:50.558Z,-3.19
2023-02-24T17:21:18.212Z,-3.03
2023-02-24T17:23:45.085Z,-3.15
2023-02-24T17:26:15.543Z,-3.06
2023-02-24T17:28:42.642Z,-3.02
2023-02-24T17:31:09.697Z,-3.02
2023-02-24T17:33:36.689Z,-3.18
2023-02-24T17:36:03.827Z,-3.07
2023-02-24T17:38:30.756Z,-3.02
2023-02-24T17:40:57.907Z,-3.00
2023-02-24T17:43:24.869Z,-3.00
2023-02-24T17:45:53.153Z,-3.05
2023-02-24T17:48:20.595Z,-2.99
2023-02-24T17:50:48.619Z,-2.99
2023-02-24T17:53:15.933Z,-3.01
2023-02-24T17:56:01.084Z,-3.01
2023-02-24T17:58:28.656Z,-3.00
2023-02-24T18:00:55.554Z,-3.02
2023-02-24T18:03:22.452Z,-3.02
2023-02-24T18:05:49.573Z,-3.01
2023-02-24T18:08:16.452Z,-3.02
2023-02-24T18:10:43.259Z,-3.03
2023-02-24T18:13:10.110Z,-3.00
2023-02-24T18:15:39.139Z,-3.01
2023-02-24T18:18:05.911Z,-3.00
2023-02-24T18:20:32.710Z,-3.02
2023-02-24T18:22:59.507Z,-3.03
2023-02-24T18:25:26.448Z,-3.12
2023-02-24T18:27:53.392Z,-3.07
2023-02-24T18:30:20.391Z,-3.10
2023-02-24T18:32:47.483Z,-3.10
2023-02-24T18:35:16.010Z,-3.11
2023-02-24T18:37:43.710Z,-3.09
2023-02-24T18:40:11.313Z,-3.08
2023-02-24T18:42:38.780Z,-3.26
2023-02-24T18:45:06.611Z,-3.09
2023-02-24T18:47:33.438Z,-3.09
2023-02-24T18:50:00.293Z,-3.10
2023-02-24T18:52:27.182Z,-3.14
2023-02-24T18:54:55.474Z,-3.16
2023-02-24T18:57:22.348Z,-3.20
2023-02-24T18:59:51.036Z,-3.21
2023-02-24T19:02:18.200Z,-3.21
2023-02-24T19:04:46.085Z,-3.24
2023-02-24T19:07:13.555Z,-3.34
2023-02-24T19:09:41.858Z,-3.27
2023-02-24T19:12:09.230Z,-3.29
2023-02-24T19:14:37.354Z,-3.31
2023-02-24T19:17:04.358Z,-3.36
2023-02-24T19:19:31.227Z,-3.39
2023-02-24T19:21:58.178Z,-3.40
2023-02-24T19:24:25.036Z,-3.39
2023-02-24T19:26:53.812Z,-3.41
2023-02-24T19:29:22.157Z,-3.42
2023-02-24T19:31:54.122Z,-3.42
2023-02-24T19:34:21.634Z,-3.55
2023-02-24T19:36:48.435Z,-3.41
2023-02-24T19:39:18.521Z,-3.42
2023-02-24T19:41:46.988Z,-3.42
2023-02-24T19:44:14.826Z,-3.59
2023-02-24T19:46:43.132Z,-3.42
2023-02-24T19:49:10.006Z,-3.40
2023-02-24T19:51:36.875Z,-3.38
2023-02-24T19:54:06.325Z,-3.38
2023-02-24T19:56:37.044Z,-3.36
2023-02-24T19:59:06.604Z,-3.37
2023-02-24T20:01:33.949Z,-3.39
2023-02-24T20:04:02.810Z,-3.40
2023-02-24T20:06:32.424Z,-3.39
2023-02-24T20:09:00.069Z,-3.43
2023-02-24T20:11:28.811Z,-3.34
2023-02-24T20:13:55.710Z,-3.31
2023-02-24T20:16:27.365Z,-3.31
2023-02-24T20:18:55.567Z,-3.29
2023-02-24T20:21:22.782Z,-3.30
2023-02-24T20:23:50.730Z,-3.41
2023-02-24T20:26:17.674Z,-3.29
2023-02-24T20:28:45.614Z,-3.28
2023-02-24T20:31:15.589Z,-3.27
2023-02-24T20:33:43.748Z,-3.26
2023-02-24T20:36:19.510Z,-3.25
2023-02-24T20:38:47.017Z,-3.25
2023-02-24T20:41:13.932Z,-3.27
2023-02-24T20:43:40.709Z,-3.25
2023-02-24T20:46:16.697Z,-3.24
2023-02-24T20:48:44.167Z,-3.22
2023-02-24T20:51:12.530Z,-3.21
2023-02-24T20:53:54.628Z,-3.19
2023-02-24T20:56:23.559Z,-3.17
2023-02-24T20:58:53.152Z,-3.16
2023-02-24T21:01:21.188Z,-3.15
2023-02-24T21:03:48.575Z,-3.12
2023-02-24T21:06:17.222Z,-3.10
2023-02-24T21:08:44.414Z,-3.09
2023-02-24T21:11:12.211Z,-3.11
2023-02-24T21:13:44.220Z,-3.16
2023-02-24T21:16:12.267Z,-3.08
2023-02-24T21:18:40.889Z,-3.10
2023-02-24T21:21:09.065Z,-3.01
2023-02-24T21:23:37.321Z,-3.01
2023-02-24T21:26:04.768Z,-2.99
2023-02-24T21:28:31.835Z,-2.98
2023-02-24T21:30:58.782Z,-3.00
2023-02-24T21:33:25.816Z,-2.98
2023-02-24T21:36:03.814Z,-2.95
2023-02-24T21:38:34.259Z,-2.93
2023-02-24T21:41:07.506Z,-2.91
2023-02-24T21:43:34.588Z,-2.91
2023-02-24T21:46:02.894Z,-2.86
2023-02-24T21:48:29.771Z,-2.86
2023-02-24T21:51:05.277Z,-2.91
2023-02-24T21:53:35.506Z,-2.84
2023-02-24T21:56:03.816Z,-2.82
2023-02-24T21:58:31.947Z,-2.82
2023-02-24T22:00:59.269Z,-2.81
2023-02-24T22:03:26.273Z,-2.80
2023-02-24T22:05:54.398Z,-2.79
2023-02-24T22:08:21.194Z,-2.77
2023-02-24T22:10:57.752Z,-2.85
2023-02-24T22:13:24.984Z,-2.79
2023-02-24T22:15:51.842Z,-2.74
2023-02-24T22:18:21.001Z,-2.76
2023-02-24T22:20:47.857Z,-2.74
2023-02-24T22:23:14.680Z,-2.78
2023-02-24T22:25:41.429Z,-2.70
2023-02-24T22:28:08.418Z,-2.70
2023-02-24T22:30:35.403Z,-2.70
2023-02-24T22:33:02.135Z,-2.67
2023-02-24T22:35:28.906Z,-2.64
2023-02-24T22:37:57.354Z,-2.62
2023-02-24T22:40:24.234Z,-2.66
2023-02-24T22:42:51.188Z,-2.56
2023-02-24T22:45:19.111Z,-2.53
2023-02-24T22:47:45.859Z,-2.51
2023-02-24T22:50:12.584Z,-2.49
2023-02-24T22:52:39.895Z,-2.47
2023-02-24T22:55:07.275Z,-2.46
2023-02-24T22:57:34.947Z,-2.43
2023-02-24T23:00:01.834Z,-2.41
2023-02-24T23:02:30.636Z,-2.43
2023-02-24T23:04:57.478Z,-2.44
2023-02-24T23:07:24.274Z,-2.46
2023-02-24T23:09:53.671Z,-2.45
2023-02-24T23:12:21.014Z,-2.40
2023-02-24T23:14:47.785Z,-2.36
2023-02-24T23:17:14.592Z,-2.35
2023-02-24T23:19:41.337Z,-2.32
2023-02-24T23:22:08.166Z,-2.33
2023-02-24T23:24:36.186Z,-2.35
2023-02-24T23:27:03.081Z,-2.33
2023-02-24T23:29:30.934Z,-2.31
2023-02-24T23:31:59.002Z,-2.28
2023-02-24T23:34:26.047Z,-2.26
2023-02-24T23:36:52.964Z,-2.25
2023-02-24T23:39:23.848Z,-2.24
2023-02-24T23:41:56.729Z,-2.23
2023-02-24T23:44:24.190Z,-2.21
2023-02-24T23:46:50.953Z,-2.18
2023-02-24T23:49:17.724Z,-2.16
2023-02-24T23:51:48.967Z,-2.16
2023-02-24T23:54:18.117Z,-2.19
2023-02-24T23:56:45.560Z,-2.20
2023-02-24T23:59:12.277Z,-2.19
